createdAt,value
2023-08-17T00:01:36.445Z,26.48
2023-08-17T00:04:03.307Z,26.61
2023-08-17T00:06:30.082Z,26.62
2023-08-17T00:08:57.228Z,26.09
2023-08-17T00:11:24.196Z,25.50
2023-08-17T00:13:51.266Z,25.17
2023-08-17T00:16:18.282Z,25.53
2023-08-17T00:18:45.198Z,25.94
2023-08-17T00:21:11.821Z,26.23
2023-08-17T00:23:38.458Z,26.44
2023-08-17T00:26:05.085Z,26.61
2023-08-17T00:28:31.721Z,26.73
2023-08-17T00:31:00.535Z,26.77
2023-08-17T00:33:27.212Z,26.26
2023-08-17T00:35:53.835Z,25.68
2023-08-17T00:38:20.698Z,25.36
2023-08-17T00:40:48.003Z,25.75
2023-08-17T00:43:15.015Z,26.17
2023-08-17T00:45:42.619Z,26.44
2023-08-17T00:48:10.709Z,26.63
2023-08-17T00:50:38.992Z,26.76
2023-08-17T00:53:05.872Z,26.74
2023-08-17T00:55:34.458Z,26.16
2023-08-17T00:58:01.761Z,25.53
2023-08-17T01:00:28.815Z,25.20
2023-08-17T01:02:56.598Z,25.58
2023-08-17T01:05:25.021Z,26.01
2023-08-17T01:07:51.769Z,26.23
2023-08-17T01:10:19.135Z,26.36
2023-08-17T01:13:12.169Z,26.40
2023-08-17T01:15:43.536Z,26.33
2023-08-17T01:18:27.798Z,26.35
2023-08-17T01:20:55.680Z,26.37
2023-08-17T01:23:23.850Z,26.41
2023-08-17T01:25:50.605Z,26.46
2023-08-17T01:28:17.300Z,26.51
2023-08-17T01:30:56.182Z,26.57
2023-08-17T01:33:49.408Z,26.63
2023-08-17T01:36:23.907Z,26.69
2023-08-17T01:38:53.532Z,26.78
2023-08-17T01:41:23.743Z,26.85
2023-08-17T01:43:51.206Z,26.90
2023-08-17T01:46:19.060Z,26.83
2023-08-17T01:48:46.619Z,26.25
2023-08-17T01:51:19.997Z,25.59
2023-08-17T01:53:47.296Z,25.19
2023-08-17T01:56:14.301Z,25.52
2023-08-17T01:58:40.986Z,25.83
2023-08-17T02:01:07.812Z,25.95
2023-08-17T02:03:34.541Z,26.01
2023-08-17T02:06:01.752Z,26.08
2023-08-17T02:08:28.492Z,26.13
2023-08-17T02:10:55.091Z,26.18
2023-08-17T02:13:22.020Z,26.24
2023-08-17T02:19:00.598Z,26.31
2023-08-17T02:21:27.267Z,26.41
2023-08-17T02:23:53.894Z,26.47
2023-08-17T02:26:21.956Z,26.52
2023-08-17T02:28:48.651Z,26.56
2023-08-17T02:31:15.278Z,26.56
2023-08-17T02:33:41.977Z,26.54
2023-08-17T02:36:08.665Z,26.54
2023-08-17T02:38:35.255Z,26.50
2023-08-17T02:41:01.878Z,26.49
2023-08-17T02:43:28.822Z,26.54
2023-08-17T02:45:55.513Z,26.57
2023-08-17T02:48:22.135Z,26.61
2023-08-17T02:50:48.783Z,26.62
2023-08-17T02:53:15.404Z,26.59
2023-08-17T02:55:42.357Z,26.54
2023-08-17T02:58:08.978Z,26.51
2023-08-17T03:00:35.655Z,26.46
2023-08-17T03:03:02.384Z,26.42
2023-08-17T03:05:29.049Z,26.39
2023-08-17T03:07:55.710Z,26.36
2023-08-17T03:10:22.312Z,26.28
2023-08-17T03:12:50.776Z,26.23
2023-08-17T03:15:17.992Z,26.27
2023-08-17T03:17:45.474Z,26.31
2023-08-17T03:20:12.343Z,26.34
2023-08-17T03:22:39.029Z,26.35
2023-08-17T03:25:06.724Z,26.34
2023-08-17T03:27:33.885Z,26.33
2023-08-17T03:30:01.268Z,26.33
2023-08-17T03:32:28.236Z,26.32
2023-08-17T03:34:54.891Z,26.30
2023-08-17T03:37:22.190Z,26.30
2023-08-17T03:39:48.867Z,26.32
2023-08-17T03:42:15.758Z,26.33
2023-08-17T03:44:42.392Z,26.37
2023-08-17T03:47:09.010Z,26.31
2023-08-17T03:49:35.700Z,25.73
2023-08-17T03:52:02.318Z,25.10
2023-08-17T03:54:29.023Z,24.77
2023-08-17T03:56:55.712Z,25.11
2023-08-17T03:59:22.480Z,25.52
2023-08-17T04:01:49.169Z,25.82
2023-08-17T04:04:15.886Z,26.04
2023-08-17T04:06:42.836Z,26.23
2023-08-17T04:09:09.470Z,26.36
2023-08-17T04:11:37.804Z,26.33
2023-08-17T04:14:05.024Z,25.79
2023-08-17T04:16:33.440Z,25.19
2023-08-17T04:19:00.583Z,24.88
2023-08-17T04:21:27.571Z,25.29
2023-08-17T04:23:54.447Z,25.81
2023-08-17T04:26:21.802Z,26.18
2023-08-17T04:28:48.508Z,26.47
2023-08-17T04:31:15.691Z,26.52
2023-08-17T04:33:42.466Z,26.05
2023-08-17T04:36:09.140Z,25.53
2023-08-17T04:38:35.788Z,25.14
2023-08-17T04:41:02.642Z,24.99
2023-08-17T04:43:29.291Z,25.48
2023-08-17T04:45:56.091Z,26.00
2023-08-17T04:48:22.792Z,26.37
2023-08-17T04:50:50.547Z,26.68
2023-08-17T04:53:17.424Z,26.82
2023-08-17T04:55:44.189Z,26.41
2023-08-17T04:58:11.630Z,25.96
2023-08-17T05:00:38.801Z,25.63
2023-08-17T05:03:06.916Z,25.53
2023-08-17T05:05:38.678Z,26.10
2023-08-17T05:08:07.289Z,26.68
2023-08-17T05:10:34.041Z,27.00
2023-08-17T05:13:00.728Z,26.70
2023-08-17T05:15:29.045Z,26.29
2023-08-17T05:17:57.508Z,25.95
2023-08-17T05:20:24.490Z,25.65
2023-08-17T05:22:51.171Z,25.60
2023-08-17T05:25:18.386Z,26.18
2023-08-17T05:27:45.187Z,26.76
2023-08-17T05:30:12.217Z,26.98
2023-08-17T05:32:38.865Z,26.64
2023-08-17T05:35:07.489Z,26.27
2023-08-17T05:37:34.175Z,26.02
2023-08-17T05:40:00.863Z,25.87
2023-08-17T05:42:27.530Z,25.76
2023-08-17T05:44:54.310Z,25.71
2023-08-17T05:47:23.025Z,25.71
2023-08-17T05:49:49.722Z,25.70
2023-08-17T05:52:16.413Z,25.73
2023-08-17T05:54:43.869Z,25.80
2023-08-17T05:57:11.800Z,25.88
2023-08-17T05:59:38.576Z,26.00
2023-08-17T06:02:05.411Z,26.16
2023-08-17T06:04:32.158Z,26.31
2023-08-17T06:06:58.835Z,26.45
2023-08-17T06:09:25.623Z,26.60
2023-08-17T06:11:52.224Z,26.72
2023-08-17T06:14:18.922Z,26.84
2023-08-17T06:16:45.649Z,26.98
2023-08-17T06:19:12.417Z,27.11
2023-08-17T06:21:39.070Z,27.26
2023-08-17T06:24:06.085Z,27.44
2023-08-17T06:26:32.858Z,27.55
2023-08-17T06:29:00.025Z,27.62
2023-08-17T06:31:28.674Z,27.69
2023-08-17T06:33:55.804Z,27.74
2023-08-17T06:36:22.719Z,27.76
2023-08-17T06:38:49.507Z,27.77
2023-08-17T06:41:17.317Z,27.80
2023-08-17T06:43:43.934Z,27.82
2023-08-17T06:46:10.734Z,27.86
2023-08-17T06:48:37.419Z,27.88
2023-08-17T06:51:05.890Z,27.92
2023-08-17T06:53:32.649Z,28.00
2023-08-17T06:56:02.462Z,28.10
2023-08-17T06:58:29.681Z,28.23
2023-08-17T07:00:56.872Z,28.38
2023-08-17T07:03:23.840Z,28.52
2023-08-17T07:05:50.659Z,28.73
2023-08-17T07:08:18.094Z,29.19
2023-08-17T07:10:47.563Z,30.20
2023-08-17T07:13:14.272Z,31.25
2023-08-17T07:15:41.251Z,31.88
2023-08-17T07:18:08.004Z,32.10
2023-08-17T07:20:34.791Z,31.97
2023-08-17T07:23:01.481Z,31.80
2023-08-17T07:25:28.182Z,31.75
2023-08-17T07:27:54.885Z,31.87
2023-08-17T07:30:21.534Z,32.13
2023-08-17T07:32:48.312Z,32.44
2023-08-17T07:35:15.083Z,32.73
2023-08-17T07:37:42.393Z,33.10
2023-08-17T07:40:10.989Z,33.42
2023-08-17T07:42:38.398Z,33.54
2023-08-17T07:45:07.408Z,33.43
2023-08-17T07:47:40.192Z,33.31
2023-08-17T07:50:08.043Z,33.27
2023-08-17T07:52:34.784Z,33.22
2023-08-17T07:55:01.668Z,33.19
2023-08-17T07:57:28.766Z,33.16
2023-08-17T07:59:55.896Z,33.13
2023-08-17T08:02:22.944Z,33.23
2023-08-17T08:04:49.600Z,33.89
2023-08-17T08:07:16.244Z,35.14
2023-08-17T08:09:42.896Z,36.52
2023-08-17T08:12:09.826Z,36.99
2023-08-17T08:14:36.863Z,36.91
2023-08-17T08:17:03.570Z,37.34
2023-08-17T08:19:30.273Z,38.49
2023-08-17T08:21:56.916Z,39.45
2023-08-17T08:24:36.612Z,39.70
2023-08-17T08:27:05.100Z,39.39
2023-08-17T08:29:31.753Z,38.87
2023-08-17T08:32:00.738Z,38.49
2023-08-17T08:34:27.454Z,38.47
2023-08-17T08:36:54.138Z,38.77
2023-08-17T08:39:20.793Z,39.24
2023-08-17T08:41:47.463Z,40.02
2023-08-17T08:44:14.254Z,40.69
2023-08-17T08:46:43.208Z,40.89
2023-08-17T08:49:11.477Z,41.11
2023-08-17T08:51:52.176Z,41.53
2023-08-17T08:54:23.469Z,41.67
2023-08-17T08:56:57.060Z,41.33
2023-08-17T08:59:24.892Z,40.73
2023-08-17T09:01:52.032Z,40.24
2023-08-17T09:04:18.905Z,39.76
2023-08-17T09:06:47.237Z,39.39
2023-08-17T09:09:17.732Z,39.22
2023-08-17T09:11:45.435Z,39.24
2023-08-17T09:14:12.297Z,39.40
2023-08-17T09:16:39.048Z,39.66
2023-08-17T09:19:08.899Z,39.78
2023-08-17T09:21:35.648Z,39.98
2023-08-17T09:24:02.551Z,40.46
2023-08-17T09:26:33.812Z,41.13
2023-08-17T09:29:01.235Z,41.36
2023-08-17T09:31:31.599Z,40.78
2023-08-17T09:33:58.302Z,40.07
2023-08-17T09:36:28.690Z,39.92
2023-08-17T09:38:58.520Z,40.08
2023-08-17T09:41:27.678Z,40.13
2023-08-17T09:43:56.321Z,40.80
2023-08-17T09:46:23.192Z,42.05
2023-08-17T09:48:49.936Z,43.20
2023-08-17T09:51:17.457Z,44.00
2023-08-17T09:53:44.261Z,44.47
2023-08-17T09:58:43.555Z,45.21
2023-08-17T10:01:11.403Z,45.81
2023-08-17T10:03:43.353Z,46.05
2023-08-17T10:06:13.312Z,46.39
2023-08-17T10:08:45.476Z,47.43
2023-08-17T10:11:16.000Z,48.98
2023-08-17T10:14:04.024Z,50.10
2023-08-17T10:16:37.673Z,50.67
2023-08-17T10:19:14.102Z,50.73
2023-08-17T10:21:47.866Z,50.91
2023-08-17T10:24:15.352Z,51.07
2023-08-17T10:26:43.429Z,51.35
2023-08-17T10:29:15.343Z,51.49
2023-08-17T10:31:48.714Z,51.20
2023-08-17T10:34:17.067Z,51.14
2023-08-17T10:36:44.201Z,51.25
2023-08-17T10:39:29.141Z,51.75
2023-08-17T10:41:58.178Z,52.25
2023-08-17T10:44:51.701Z,52.63
2023-08-17T10:47:27.738Z,53.67
2023-08-17T10:50:21.129Z,54.37
2023-08-17T10:52:51.485Z,54.54
2023-08-17T10:55:38.081Z,54.38
2023-08-17T10:58:15.284Z,54.07
2023-08-17T11:00:46.173Z,53.81
2023-08-17T11:03:29.985Z,54.04
2023-08-17T11:06:00.101Z,53.63
2023-08-17T11:08:42.593Z,52.11
2023-08-17T11:11:15.731Z,50.19
2023-08-17T11:13:49.320Z,48.76
2023-08-17T11:16:23.533Z,47.39
2023-08-17T11:18:52.751Z,46.64
2023-08-17T11:21:22.439Z,45.84
2023-08-17T11:23:52.396Z,44.95
2023-08-17T11:26:23.504Z,44.09
2023-08-17T11:28:51.967Z,43.16
2023-08-17T11:31:22.444Z,42.50
2023-08-17T11:33:55.814Z,42.12
2023-08-17T11:36:26.271Z,41.69
2023-08-17T11:38:55.785Z,41.14
2023-08-17T11:41:25.404Z,40.56
2023-08-17T11:43:55.906Z,39.97
2023-08-17T11:46:29.078Z,39.44
2023-08-17T11:49:02.480Z,38.92
2023-08-17T11:51:43.125Z,38.44
2023-08-17T12:01:51.207Z,37.13
2023-08-17T12:04:18.199Z,37.13
2023-08-17T12:06:48.786Z,37.06
2023-08-17T12:09:15.652Z,36.86
2023-08-17T12:11:42.718Z,36.54
2023-08-17T12:14:12.121Z,36.18
2023-08-17T12:16:49.825Z,35.92
2023-08-17T12:19:21.929Z,35.83
2023-08-17T12:21:52.333Z,35.73
2023-08-17T12:24:20.860Z,35.83
2023-08-17T12:26:48.190Z,36.00
2023-08-17T12:29:15.438Z,36.03
2023-08-17T12:31:42.257Z,36.15
2023-08-17T12:34:09.077Z,36.50
2023-08-17T12:36:36.821Z,36.84
2023-08-17T12:39:05.602Z,37.53
2023-08-17T12:41:32.584Z,38.37
2023-08-17T12:44:00.333Z,39.10
2023-08-17T12:46:32.547Z,39.58
2023-08-17T12:49:00.444Z,39.89
2023-08-17T12:51:27.461Z,40.18
2023-08-17T12:53:54.108Z,40.74
2023-08-17T12:56:20.880Z,41.46
2023-08-17T12:58:47.739Z,42.25
2023-08-17T13:01:15.291Z,42.71
2023-08-17T13:03:42.103Z,42.62
2023-08-17T13:06:09.321Z,42.19
2023-08-17T13:08:36.036Z,41.64
2023-08-17T13:11:02.664Z,41.12
2023-08-17T13:13:29.338Z,40.48
2023-08-17T13:15:56.091Z,39.77
2023-08-17T13:18:22.931Z,39.05
2023-08-17T13:20:49.549Z,38.50
2023-08-17T13:23:16.217Z,38.14
2023-08-17T13:25:43.678Z,37.85
2023-08-17T13:28:10.341Z,37.55
2023-08-17T13:30:36.958Z,37.28
2023-08-17T13:33:03.975Z,37.20
2023-08-17T13:35:30.777Z,37.21
2023-08-17T13:37:58.769Z,37.23
2023-08-17T13:40:25.963Z,37.13
2023-08-17T13:42:52.589Z,36.83
2023-08-17T13:45:19.222Z,36.46
2023-08-17T13:47:47.664Z,36.15
2023-08-17T13:50:14.326Z,35.98
2023-08-17T13:52:40.938Z,35.92
2023-08-17T13:55:07.986Z,35.80
2023-08-17T13:57:34.944Z,35.76
2023-08-17T14:00:01.658Z,35.92
2023-08-17T14:02:30.787Z,36.23
2023-08-17T14:04:58.171Z,36.54
2023-08-17T14:07:24.837Z,36.82
2023-08-17T14:10:05.586Z,36.98
2023-08-17T14:12:35.120Z,36.92
2023-08-17T14:15:01.908Z,36.87
2023-08-17T14:17:28.550Z,36.84
2023-08-17T14:19:56.086Z,36.87
2023-08-17T14:22:22.744Z,36.93
2023-08-17T14:24:49.759Z,37.03
2023-08-17T14:27:16.369Z,37.19
2023-08-17T14:29:48.034Z,37.36
2023-08-17T14:32:15.315Z,37.47
2023-08-17T14:34:41.955Z,37.42
2023-08-17T14:37:08.568Z,37.22
2023-08-17T14:39:37.568Z,37.01
2023-08-17T14:42:06.109Z,36.87
2023-08-17T14:44:35.555Z,36.70
2023-08-17T14:47:02.270Z,36.55
2023-08-17T14:49:28.887Z,36.48
2023-08-17T14:51:55.744Z,36.40
2023-08-17T14:54:22.418Z,36.29
2023-08-17T14:56:49.145Z,36.19
2023-08-17T14:59:15.811Z,36.14
2023-08-17T15:01:42.459Z,36.03
2023-08-17T15:04:09.101Z,35.98
2023-08-17T15:06:41.895Z,35.97
2023-08-17T15:09:09.011Z,35.88
2023-08-17T15:11:37.050Z,35.66
2023-08-17T15:14:03.825Z,35.45
2023-08-17T15:16:30.481Z,35.26
2023-08-17T15:18:57.267Z,35.10
2023-08-17T15:21:23.945Z,34.96
2023-08-17T15:23:50.711Z,34.87
2023-08-17T15:26:17.470Z,34.77
2023-08-17T15:28:44.517Z,34.69
2023-08-17T15:31:14.303Z,34.58
2023-08-17T15:33:41.648Z,34.46
2023-08-17T15:36:08.557Z,34.35
2023-08-17T15:38:35.483Z,34.24
2023-08-17T15:41:02.162Z,34.13
2023-08-17T15:43:28.837Z,34.00
2023-08-17T15:45:55.609Z,33.90
2023-08-17T15:48:22.333Z,33.82
2023-08-17T15:50:49.028Z,33.73
2023-08-17T15:53:15.709Z,33.56
2023-08-17T15:55:42.392Z,33.37
2023-08-17T15:58:10.839Z,33.18
2023-08-17T16:00:37.895Z,33.03
2023-08-17T16:03:05.107Z,32.89
2023-08-17T16:05:32.522Z,32.75
2023-08-17T16:07:59.476Z,32.63
2023-08-17T16:10:27.047Z,32.53
2023-08-17T16:12:53.704Z,32.42
2023-08-17T16:15:20.328Z,32.30
2023-08-17T16:17:47.087Z,32.19
2023-08-17T16:20:13.796Z,32.09
2023-08-17T16:22:40.597Z,31.99
2023-08-17T16:25:08.370Z,31.91
2023-08-17T16:27:38.803Z,31.85
2023-08-17T16:30:06.988Z,31.83
2023-08-17T16:32:33.675Z,31.81
2023-08-17T16:35:00.507Z,31.77
2023-08-17T16:37:27.309Z,31.72
2023-08-17T16:39:54.265Z,31.68
2023-08-17T16:42:20.952Z,31.61
2023-08-17T16:44:47.564Z,31.56
2023-08-17T16:47:19.911Z,31.52
2023-08-17T16:49:46.918Z,31.49
2023-08-17T16:52:13.584Z,31.45
2023-08-17T16:54:40.364Z,31.39
2023-08-17T16:57:07.055Z,31.33
2023-08-17T16:59:33.677Z,31.25
2023-08-17T17:02:00.445Z,31.16
2023-08-17T17:04:27.157Z,31.05
2023-08-17T17:06:53.832Z,30.92
2023-08-17T17:09:21.140Z,30.79
2023-08-17T17:11:47.894Z,30.67
2023-08-17T17:14:14.515Z,30.51
2023-08-17T17:16:41.183Z,30.34
2023-08-17T17:19:07.770Z,30.18
2023-08-17T17:21:34.641Z,30.02
2023-08-17T17:24:01.274Z,29.90
2023-08-17T17:26:28.055Z,29.79
2023-08-17T17:28:54.636Z,29.69
2023-08-17T17:31:21.334Z,29.59
2023-08-17T17:33:48.059Z,29.48
2023-08-17T17:36:14.685Z,29.36
2023-08-17T17:38:41.409Z,29.23
2023-08-17T17:41:08.113Z,29.07
2023-08-17T17:43:34.715Z,28.90
2023-08-17T17:46:01.376Z,28.72
2023-08-17T17:48:30.464Z,28.55
2023-08-17T17:50:57.166Z,28.38
2023-08-17T17:53:23.866Z,28.20
2023-08-17T17:55:50.543Z,28.04
2023-08-17T17:58:17.185Z,27.87
2023-08-17T18:00:44.095Z,27.72
2023-08-17T18:03:14.877Z,27.57
2023-08-17T18:05:46.620Z,27.44
2023-08-17T18:08:13.678Z,27.29
2023-08-17T18:10:42.002Z,27.15
2023-08-17T18:13:09.585Z,27.02
2023-08-17T18:15:39.375Z,26.88
2023-08-17T18:18:06.949Z,26.76
2023-08-17T18:20:34.153Z,26.65
2023-08-17T18:23:00.866Z,26.55
2023-08-17T18:25:28.159Z,26.45
2023-08-17T18:27:55.012Z,26.34
2023-08-17T18:30:23.215Z,26.22
2023-08-17T18:32:50.962Z,26.10
2023-08-17T18:35:18.941Z,25.99
2023-08-17T18:37:46.991Z,25.89
2023-08-17T18:40:13.750Z,25.78
2023-08-17T18:42:40.647Z,25.68
2023-08-17T18:45:08.325Z,25.56
2023-08-17T18:47:35.394Z,25.44
2023-08-17T18:50:02.364Z,25.34
2023-08-17T18:52:29.008Z,25.25
2023-08-17T18:55:03.990Z,25.29
2023-08-17T18:57:33.650Z,25.95
2023-08-17T19:00:02.667Z,26.59
2023-08-17T19:02:29.429Z,26.90
2023-08-17T19:05:01.201Z,26.56
2023-08-17T19:07:29.365Z,26.12
2023-08-17T19:09:56.276Z,25.79
2023-08-17T19:12:23.051Z,25.53
2023-08-17T19:14:52.841Z,25.31
2023-08-17T19:17:19.634Z,25.28
2023-08-17T19:19:46.431Z,25.86
2023-08-17T19:22:13.121Z,26.41
2023-08-17T19:24:40.003Z,26.62
2023-08-17T19:27:06.689Z,26.23
2023-08-17T19:29:33.488Z,25.76
2023-08-17T19:32:00.284Z,25.38
2023-08-17T19:34:26.954Z,25.09
2023-08-17T19:36:53.636Z,25.01
2023-08-17T19:39:20.339Z,25.52
2023-08-17T19:41:48.572Z,25.99
2023-08-17T19:44:15.708Z,26.31
2023-08-17T19:46:42.317Z,26.45
2023-08-17T19:49:09.488Z,26.05
2023-08-17T19:51:36.185Z,25.53
2023-08-17T19:54:02.876Z,25.13
2023-08-17T19:56:29.821Z,24.99
2023-08-17T19:58:56.499Z,25.49
2023-08-17T20:01:23.814Z,25.97
2023-08-17T20:03:52.791Z,26.14
2023-08-17T20:06:19.524Z,25.74
2023-08-17T20:08:46.795Z,25.26
2023-08-17T20:11:13.541Z,24.87
2023-08-17T20:13:40.201Z,24.58
2023-08-17T20:16:07.020Z,24.34
2023-08-17T20:18:34.096Z,24.14
2023-08-17T20:21:03.288Z,23.96
2023-08-17T20:23:30.711Z,23.79
2023-08-17T20:25:57.758Z,23.80
2023-08-17T20:28:27.565Z,24.46
2023-08-17T20:31:00.519Z,25.09
2023-08-17T20:33:28.068Z,25.38
2023-08-17T20:35:56.253Z,25.02
2023-08-17T20:38:24.555Z,24.58
2023-08-17T20:40:52.649Z,24.26
2023-08-17T20:43:19.983Z,24.04
2023-08-17T20:45:46.851Z,23.96
2023-08-17T20:48:13.822Z,24.50
2023-08-17T20:50:41.899Z,25.05
2023-08-17T20:53:09.334Z,25.43
2023-08-17T20:55:41.462Z,25.57
2023-08-17T20:58:08.941Z,25.11
2023-08-17T21:00:36.967Z,24.59
2023-08-17T21:03:07.626Z,24.19
2023-08-17T21:05:34.629Z,24.04
2023-08-17T21:08:02.815Z,24.56
2023-08-17T21:10:30.247Z,25.06
2023-08-17T21:13:00.004Z,25.38
2023-08-17T21:15:26.886Z,25.47
2023-08-17T21:17:53.740Z,24.95
2023-08-17T21:20:20.740Z,24.44
2023-08-17T21:22:52.508Z,24.07
2023-08-17T21:25:20.196Z,23.79
2023-08-17T21:27:47.870Z,23.58
2023-08-17T21:30:16.774Z,23.40
2023-08-17T21:32:43.989Z,23.41
2023-08-17T21:35:12.674Z,24.05
2023-08-17T21:37:42.087Z,24.72
2023-08-17T21:40:09.657Z,24.97
2023-08-17T21:42:36.405Z,24.57
2023-08-17T21:45:03.731Z,24.17
2023-08-17T21:47:30.832Z,23.89
2023-08-17T21:49:57.770Z,23.66
2023-08-17T21:52:24.719Z,23.47
2023-08-17T21:54:51.701Z,23.48
2023-08-17T21:57:18.851Z,24.10
2023-08-17T21:59:45.538Z,24.71
2023-08-17T22:02:12.197Z,25.02
2023-08-17T22:04:38.850Z,24.67
2023-08-17T22:07:05.581Z,24.24
2023-08-17T22:09:34.650Z,23.91
2023-08-17T22:12:02.369Z,23.64
2023-08-17T22:14:32.436Z,23.59
2023-08-17T22:16:59.481Z,24.15
2023-08-17T22:19:27.100Z,24.71
2023-08-17T22:21:54.707Z,25.09
2023-08-17T22:24:21.492Z,25.21
2023-08-17T22:26:48.540Z,24.76
2023-08-17T22:29:15.427Z,24.23
2023-08-17T22:31:44.314Z,23.82
2023-08-17T22:34:11.936Z,23.64
2023-08-17T22:36:38.990Z,24.11
2023-08-17T22:39:06.706Z,24.61
2023-08-17T22:41:33.805Z,24.95
2023-08-17T22:44:00.673Z,25.08
2023-08-17T22:46:27.488Z,24.66
2023-08-17T22:48:54.238Z,24.11
2023-08-17T22:51:20.939Z,23.70
2023-08-17T22:53:47.673Z,23.53
2023-08-17T22:56:14.405Z,24.01
2023-08-17T22:58:41.008Z,24.51
2023-08-17T23:01:08.762Z,24.86
2023-08-17T23:03:35.957Z,24.98
2023-08-17T23:06:02.933Z,24.58
2023-08-17T23:08:30.288Z,24.18
2023-08-17T23:11:03.924Z,23.81
2023-08-17T23:13:30.652Z,23.72
2023-08-17T23:15:57.418Z,24.15
2023-08-17T23:18:24.095Z,24.52
2023-08-17T23:20:51.027Z,24.75
2023-08-17T23:23:18.952Z,24.94
2023-08-17T23:25:45.712Z,25.10
2023-08-17T23:28:12.543Z,25.27
2023-08-17T23:30:40.666Z,25.44
2023-08-17T23:33:07.431Z,25.45
2023-08-17T23:35:35.106Z,24.87
2023-08-17T23:38:01.722Z,24.46
2023-08-17T23:40:28.356Z,24.67
2023-08-17T23:42:54.995Z,25.06
2023-08-17T23:45:21.656Z,25.29
2023-08-17T23:47:48.314Z,25.50
2023-08-17T23:50:15.273Z,25.83
2023-08-17T23:52:42.134Z,26.25
2023-08-17T23:55:09.054Z,25.96
2023-08-17T23:57:35.795Z,25.17
